createdAt,value
2018-10-01T00:02:02.328Z,11.23
2018-10-01T00:04:30.486Z,11.60
2018-10-01T00:06:58.633Z,12.30
2018-10-01T00:09:27.175Z,13.00
2018-10-01T00:11:55.309Z,12.13
2018-10-01T00:14:23.445Z,12.43
2018-10-01T00:16:51.563Z,11.90
2018-10-01T00:19:25.167Z,13.00
2018-10-01T00:21:58.634Z,11.67
2018-10-01T00:24:26.764Z,13.90
2018-10-01T00:26:55.117Z,12.00
2018-10-01T00:29:23.271Z,13.07
2018-10-01T00:31:51.451Z,14.20
2018-10-01T00:34:19.634Z,14.53
2018-10-01T00:36:47.763Z,13.50
2018-10-01T00:39:15.940Z,14.10
2018-10-01T00:41:44.123Z,14.40
2018-10-01T00:44:12.240Z,13.47
2018-10-01T00:46:40.959Z,13.97
2018-10-01T00:49:09.068Z,14.00
2018-10-01T00:51:37.209Z,18.13
2018-10-01T00:54:05.384Z,15.47
2018-10-01T00:56:33.630Z,14.17
2018-10-01T00:59:01.766Z,15.17
2018-10-01T01:01:29.904Z,14.57
2018-10-01T01:03:58.004Z,14.07
2018-10-01T01:06:26.212Z,14.23
2018-10-01T01:08:54.455Z,15.30
2018-10-01T01:11:23.074Z,14.07
2018-10-01T01:13:51.314Z,13.50
2018-10-01T01:16:20.248Z,13.70
2018-10-01T01:18:48.397Z,14.30
2018-10-01T01:21:16.507Z,13.80
2018-10-01T01:23:44.663Z,14.00
2018-10-01T01:26:12.936Z,13.47
2018-10-01T01:28:41.117Z,12.87
2018-10-01T01:31:09.225Z,13.03
2018-10-01T01:33:37.427Z,13.30
2018-10-01T01:36:05.567Z,13.40
2018-10-01T01:38:34.806Z,13.50
2018-10-01T01:41:02.947Z,12.83
2018-10-01T01:43:31.112Z,12.77
2018-10-01T01:45:59.255Z,11.30
2018-10-01T01:48:27.480Z,12.00
2018-10-01T01:50:56.163Z,16.27
2018-10-01T01:53:24.332Z,12.33
2018-10-01T01:55:53.307Z,11.20
2018-10-01T01:58:21.553Z,10.57
2018-10-01T02:00:50.005Z,11.33
2018-10-01T02:03:18.189Z,10.30
2018-10-01T02:05:46.378Z,10.73
2018-10-01T02:08:14.526Z,10.20
2018-10-01T02:10:42.808Z,11.37
2018-10-01T02:13:10.999Z,10.20
2018-10-01T02:15:39.135Z,11.70
2018-10-01T02:18:10.274Z,9.57
2018-10-01T02:20:38.400Z,9.93
2018-10-01T02:23:06.883Z,8.50
2018-10-01T02:25:35.080Z,9.57
2018-10-01T02:28:03.255Z,8.90
2018-10-01T02:30:31.549Z,9.63
2018-10-01T02:32:59.757Z,7.90
2018-10-01T02:35:27.997Z,8.70
2018-10-01T02:37:56.592Z,8.10
2018-10-01T02:40:24.801Z,7.90
2018-10-01T02:42:53.795Z,7.63
2018-10-01T02:45:24.196Z,6.83
2018-10-01T02:47:52.528Z,7.30
2018-10-01T02:50:20.614Z,6.53
2018-10-01T02:52:55.123Z,6.30
2018-10-01T02:55:26.788Z,6.87
2018-10-01T02:57:55.192Z,6.80
2018-10-01T03:00:24.335Z,6.60
2018-10-01T03:02:52.529Z,6.50
2018-10-01T03:05:20.890Z,6.20
2018-10-01T03:07:49.797Z,7.40
2018-10-01T03:10:19.219Z,6.40
2018-10-01T03:12:47.340Z,5.70
2018-10-01T03:15:15.462Z,5.20
2018-10-01T03:17:46.288Z,5.43
2018-10-01T03:20:15.489Z,6.10
2018-10-01T03:22:43.835Z,5.33
2018-10-01T03:25:13.071Z,6.23
2018-10-01T03:27:42.144Z,5.53
2018-10-01T03:30:10.278Z,5.80
2018-10-01T03:32:38.548Z,5.10
2018-10-01T03:35:06.724Z,5.83
2018-10-01T03:37:34.918Z,6.17
2018-10-01T03:40:03.152Z,5.00
2018-10-01T03:42:31.408Z,5.70
2018-10-01T03:45:00.490Z,5.50
2018-10-01T03:47:28.647Z,4.80
2018-10-01T03:49:56.797Z,6.07
2018-10-01T03:52:24.983Z,5.30
2018-10-01T03:54:53.197Z,5.33
2018-10-01T03:57:22.176Z,5.07
2018-10-01T03:59:50.359Z,5.90
2018-10-01T04:02:18.482Z,5.50
2018-10-01T04:04:46.603Z,4.77
2018-10-01T04:07:14.759Z,4.30
2018-10-01T04:09:42.880Z,4.30
2018-10-01T04:12:11.021Z,3.83
2018-10-01T04:14:39.192Z,4.83
2018-10-01T04:17:07.384Z,4.10
2018-10-01T04:19:36.110Z,5.33
2018-10-01T04:22:04.266Z,5.10
2018-10-01T04:24:32.591Z,4.03
2018-10-01T04:27:00.716Z,3.87
2018-10-01T04:29:30.356Z,3.80
2018-10-01T04:31:58.488Z,4.43
2018-10-01T04:34:26.692Z,6.23
2018-10-01T04:36:55.499Z,5.40
2018-10-01T04:39:23.634Z,3.93
2018-10-01T04:41:51.784Z,4.73
2018-10-01T04:44:19.972Z,4.73
2018-10-01T04:46:48.137Z,4.30
2018-10-01T04:49:16.293Z,6.23
2018-10-01T04:51:44.413Z,5.30
2018-10-01T04:54:12.882Z,5.20
2018-10-01T04:56:41.082Z,5.47
2018-10-01T04:59:11.045Z,5.13
2018-10-01T05:01:39.223Z,6.87
2018-10-01T05:04:07.393Z,7.17
2018-10-01T05:06:35.595Z,8.33
2018-10-01T05:09:05.549Z,7.10
2018-10-01T05:11:33.745Z,7.23
2018-10-01T05:14:01.892Z,6.93
2018-10-01T05:16:30.041Z,6.60
2018-10-01T05:18:58.208Z,8.17
2018-10-01T05:21:26.387Z,5.60
2018-10-01T05:23:54.812Z,4.70
2018-10-01T05:26:23.041Z,6.27
2018-10-01T05:28:51.226Z,5.30
2018-10-01T05:31:19.353Z,6.10
2018-10-01T05:33:47.493Z,5.93
2018-10-01T05:36:15.888Z,5.63
2018-10-01T05:38:44.049Z,5.57
2018-10-01T05:41:12.218Z,4.63
2018-10-01T05:43:40.408Z,5.00
2018-10-01T05:46:08.620Z,5.00
2018-10-01T05:48:36.781Z,4.30
2018-10-01T05:51:05.020Z,5.13
2018-10-01T05:53:33.518Z,4.43
2018-10-01T05:56:02.936Z,6.27
2018-10-01T05:58:31.724Z,5.23
2018-10-01T06:00:59.888Z,4.63
2018-10-01T06:03:29.040Z,4.90
2018-10-01T06:05:57.228Z,5.20
2018-10-01T06:08:25.432Z,5.80
2018-10-01T06:10:53.593Z,4.43
2018-10-01T06:13:23.230Z,5.30
2018-10-01T06:15:51.994Z,5.17
2018-10-01T06:18:20.204Z,4.33
2018-10-01T06:20:48.384Z,4.20
2018-10-01T06:23:16.616Z,4.53
2018-10-01T06:25:44.794Z,4.13
2018-10-01T06:28:12.944Z,3.97
2018-10-01T06:30:41.132Z,3.70
2018-10-01T06:33:09.576Z,5.93
2018-10-01T06:35:37.850Z,4.63
2018-10-01T06:38:07.417Z,4.10
2018-10-01T06:40:35.562Z,3.93
2018-10-01T06:43:03.710Z,4.83
2018-10-01T06:45:32.398Z,6.67
2018-10-01T06:48:00.606Z,4.33
2018-10-01T06:50:28.826Z,4.80
2018-10-01T06:52:56.962Z,3.50
2018-10-01T06:55:25.093Z,4.47
2018-10-01T06:57:53.306Z,3.70
2018-10-01T07:00:21.506Z,4.17
2018-10-01T07:02:49.642Z,4.90
2018-10-01T07:05:17.823Z,4.83
2018-10-01T07:07:46.027Z,4.37
2018-10-01T07:10:15.071Z,4.10
2018-10-01T07:12:43.177Z,4.47
2018-10-01T07:15:11.868Z,3.80
2018-10-01T07:17:39.982Z,4.13
2018-10-01T07:20:08.117Z,4.33
2018-10-01T07:22:36.554Z,4.20
2018-10-01T07:25:05.430Z,4.07
2018-10-01T07:27:33.573Z,4.47
2018-10-01T07:30:01.705Z,3.43
2018-10-01T07:32:30.241Z,3.47
2018-10-01T07:35:00.860Z,3.80
2018-10-01T07:37:28.991Z,5.10
2018-10-01T07:39:57.169Z,5.33
2018-10-01T07:42:26.424Z,4.60
2018-10-01T07:44:54.668Z,6.00
2018-10-01T07:47:22.886Z,5.00
2018-10-01T07:49:51.066Z,5.00
2018-10-01T07:52:21.248Z,4.70
2018-10-01T07:54:49.393Z,5.70
2018-10-01T07:57:17.725Z,5.30
2018-10-01T07:59:46.008Z,5.20
2018-10-01T08:02:14.302Z,4.53
2018-10-01T08:04:42.374Z,5.00
2018-10-01T08:07:10.612Z,4.77
2018-10-01T08:09:38.728Z,5.13
2018-10-01T08:12:06.912Z,5.63
2018-10-01T08:14:35.309Z,5.67
2018-10-01T08:17:03.368Z,5.27
2018-10-01T08:19:31.526Z,5.50
2018-10-01T08:21:59.736Z,6.43
2018-10-01T08:24:27.926Z,6.57
2018-10-01T08:26:56.140Z,5.63
2018-10-01T08:29:24.373Z,6.00
2018-10-01T08:31:52.558Z,5.73
2018-10-01T08:34:20.671Z,5.30
2018-10-01T08:36:48.862Z,5.57
2018-10-01T08:39:17.410Z,5.90
2018-10-01T08:41:45.553Z,5.43
2018-10-01T08:44:13.784Z,6.23
2018-10-01T08:46:42.143Z,6.30
2018-10-01T08:49:15.494Z,6.10
2018-10-01T08:51:49.127Z,6.63
2018-10-01T08:54:27.648Z,7.00
2018-10-01T08:56:55.826Z,5.83
2018-10-01T08:59:24.147Z,5.70
2018-10-01T09:01:52.326Z,6.30
2018-10-01T09:04:20.474Z,6.70
2018-10-01T09:06:48.645Z,6.03
2018-10-01T09:09:16.774Z,7.10
2018-10-01T09:11:45.012Z,8.30
2018-10-01T09:14:13.303Z,6.77
2018-10-01T09:16:41.402Z,7.43
2018-10-01T09:19:09.646Z,7.00
2018-10-01T09:21:37.850Z,7.03
2018-10-01T09:24:05.928Z,7.57
2018-10-01T09:26:34.122Z,7.47
2018-10-01T09:29:02.529Z,8.67
2018-10-01T09:31:30.679Z,9.43
2018-10-01T09:33:58.912Z,7.83
2018-10-01T09:36:27.092Z,7.30
2018-10-01T09:38:55.269Z,7.40
2018-10-01T09:41:23.493Z,8.20
2018-10-01T09:43:51.762Z,7.60
2018-10-01T09:46:19.973Z,8.20
2018-10-01T09:48:48.130Z,6.80
2018-10-01T09:51:16.308Z,7.10
2018-10-01T09:53:44.621Z,7.83
2018-10-01T09:56:12.814Z,7.80
2018-10-01T09:58:40.945Z,8.10
2018-10-01T10:01:09.180Z,7.70
2018-10-01T10:03:37.420Z,8.27
2018-10-01T10:06:05.773Z,7.90
2018-10-01T10:08:34.669Z,7.63
2018-10-01T10:11:02.808Z,7.43
2018-10-01T10:13:31.011Z,7.57
2018-10-01T10:15:59.229Z,8.30
2018-10-01T10:18:27.404Z,7.43
2018-10-01T10:20:55.595Z,7.40
2018-10-01T10:23:23.815Z,7.50
2018-10-01T10:25:52.201Z,7.87
2018-10-01T10:28:20.438Z,6.90
2018-10-01T10:30:48.701Z,6.93
2018-10-01T10:33:16.852Z,8.20
2018-10-01T10:35:45.068Z,7.83
2018-10-01T10:38:13.264Z,8.30
2018-10-01T10:40:41.412Z,8.13
2018-10-01T10:43:09.556Z,7.60
2018-10-01T10:45:39.735Z,7.97
2018-10-01T10:48:07.952Z,8.30
2018-10-01T10:50:36.471Z,8.03
2018-10-01T10:53:04.707Z,6.87
2018-10-01T10:55:32.863Z,6.00
2018-10-01T10:58:01.011Z,5.70
2018-10-01T11:00:29.156Z,6.50
2018-10-01T11:02:57.300Z,5.90
2018-10-01T11:05:25.509Z,5.73
2018-10-01T11:07:53.750Z,6.10
2018-10-01T11:10:21.887Z,5.93
2018-10-01T11:12:50.034Z,6.33
2018-10-01T11:15:18.438Z,5.73
2018-10-01T11:17:46.555Z,5.33
2018-10-01T11:20:14.862Z,6.40
2018-10-01T11:22:43.020Z,5.07
2018-10-01T11:25:12.900Z,10.83
2018-10-01T11:27:41.103Z,5.40
2018-10-01T11:30:09.215Z,5.87
2018-10-01T11:32:44.250Z,6.27
2018-10-01T11:35:12.538Z,8.13
2018-10-01T11:37:40.844Z,6.07
2018-10-01T11:40:09.021Z,6.57
2018-10-01T11:42:37.258Z,7.50
2018-10-01T11:45:06.042Z,8.77
2018-10-01T11:47:34.374Z,8.27
2018-10-01T11:50:02.514Z,8.67
2018-10-01T11:52:30.652Z,10.23
2018-10-01T11:54:58.809Z,10.10
2018-10-01T11:57:26.967Z,10.07
2018-10-01T11:59:55.149Z,9.50
2018-10-01T12:02:23.349Z,10.57
2018-10-01T12:04:51.487Z,8.00
2018-10-01T12:07:19.656Z,8.27
2018-10-01T12:09:47.956Z,7.20
2018-10-01T12:12:16.034Z,6.73
2018-10-01T12:14:44.248Z,5.33
2018-10-01T12:17:12.421Z,3.93
2018-10-01T12:19:40.566Z,3.30
2018-10-01T12:22:08.947Z,2.30
2018-10-01T12:24:37.107Z,1.90
2018-10-01T12:27:05.405Z,1.80
2018-10-01T12:29:33.506Z,1.50
2018-10-01T12:32:01.661Z,1.73
2018-10-01T12:34:31.246Z,1.43
2018-10-01T12:36:59.407Z,2.47
2018-10-01T12:39:27.601Z,2.50
2018-10-01T12:41:55.702Z,2.10
2018-10-01T12:44:23.867Z,2.47
2018-10-01T12:46:52.009Z,1.73
2018-10-01T12:49:20.156Z,2.17
2018-10-01T12:51:48.995Z,2.30
2018-10-01T12:54:17.084Z,2.03
2018-10-01T12:56:45.208Z,1.70
2018-10-01T12:59:13.388Z,2.47
2018-10-01T13:01:41.632Z,1.80
2018-10-01T13:04:09.763Z,2.00
2018-10-01T13:06:37.983Z,2.37
2018-10-01T13:09:08.670Z,2.17
2018-10-01T13:11:36.858Z,1.80
2018-10-01T13:14:05.022Z,2.27
2018-10-01T13:16:33.211Z,2.10
2018-10-01T13:19:01.548Z,1.43
2018-10-01T13:21:30.969Z,1.03
2018-10-01T13:23:59.233Z,1.50
2018-10-01T13:26:27.401Z,1.70
2018-10-01T13:28:55.876Z,2.40
2018-10-01T13:31:24.117Z,1.70
2018-10-01T13:33:52.355Z,1.47
2018-10-01T13:36:20.673Z,2.13
2018-10-01T13:38:48.803Z,2.33
2018-10-01T13:41:17.085Z,2.87
2018-10-01T13:43:45.320Z,1.80
2018-10-01T13:46:13.573Z,1.70
2018-10-01T13:48:41.924Z,2.50
2018-10-01T13:51:10.007Z,1.77
2018-10-01T13:53:38.201Z,2.10
2018-10-01T13:56:06.575Z,1.53
2018-10-01T13:58:34.778Z,1.80
2018-10-01T14:01:02.940Z,1.87
2018-10-01T14:03:31.116Z,2.13
2018-10-01T14:05:59.289Z,1.57
2018-10-01T14:08:27.471Z,1.90
2018-10-01T14:10:55.663Z,1.57
2018-10-01T14:13:24.102Z,1.20
2018-10-01T14:15:52.169Z,1.60
2018-10-01T14:18:20.425Z,1.50
2018-10-01T14:20:48.577Z,1.80
2018-10-01T14:23:16.761Z,1.27
2018-10-01T14:25:44.923Z,1.40
2018-10-01T14:28:13.107Z,1.90
2018-10-01T14:30:41.373Z,1.50
2018-10-01T14:33:09.542Z,1.87
2018-10-01T14:35:37.672Z,1.40
2018-10-01T14:38:05.797Z,1.70
2018-10-01T14:40:34.001Z,2.43
2018-10-01T14:43:02.264Z,2.00
2018-10-01T14:45:30.451Z,1.30
2018-10-01T14:47:58.596Z,1.67
2018-10-01T14:50:26.750Z,2.10
2018-10-01T14:52:54.954Z,2.03
2018-10-01T14:55:23.177Z,2.60
2018-10-01T14:57:51.469Z,1.70
2018-10-01T15:00:19.842Z,1.80
2018-10-01T15:02:47.878Z,2.10
2018-10-01T15:05:16.031Z,2.17
2018-10-01T15:07:44.247Z,1.40
2018-10-01T15:10:12.411Z,1.93
2018-10-01T15:12:40.722Z,1.27
2018-10-01T15:15:08.850Z,1.60
2018-10-01T15:17:37.093Z,1.40
2018-10-01T15:20:05.336Z,1.23
2018-10-01T15:22:33.458Z,1.33
2018-10-01T15:25:01.634Z,1.40
2018-10-01T15:27:29.815Z,1.70
2018-10-01T15:29:58.002Z,1.77
2018-10-01T15:32:26.152Z,1.53
2018-10-01T15:34:54.330Z,1.77
2018-10-01T15:37:22.478Z,1.00
2018-10-01T15:39:50.647Z,1.70
2018-10-01T15:42:18.901Z,1.00
2018-10-01T15:44:47.108Z,1.17
2018-10-01T15:47:15.273Z,1.60
2018-10-01T15:49:43.455Z,1.33
2018-10-01T15:52:11.635Z,2.30
2018-10-01T15:54:39.789Z,2.10
2018-10-01T15:57:07.946Z,2.20
2018-10-01T15:59:36.172Z,2.97
2018-10-01T16:02:04.430Z,2.40
2018-10-01T16:04:32.575Z,2.00
2018-10-01T16:07:00.742Z,2.80
2018-10-01T16:09:28.941Z,2.00
2018-10-01T16:11:57.127Z,2.20
2018-10-01T16:14:25.309Z,1.93
2018-10-01T16:16:53.748Z,1.70
2018-10-01T16:19:21.884Z,1.50
2018-10-01T16:21:50.037Z,4.47
2018-10-01T16:24:18.206Z,5.20
2018-10-01T16:26:46.780Z,7.03
2018-10-01T16:29:14.961Z,3.40
2018-10-01T16:31:43.284Z,3.30
2018-10-01T16:34:11.433Z,2.50
2018-10-01T16:36:39.589Z,1.67
2018-10-01T16:39:10.015Z,1.90
2018-10-01T16:41:38.489Z,2.10
2018-10-01T16:44:06.947Z,2.50
2018-10-01T16:46:35.143Z,1.70
2018-10-01T16:49:03.495Z,2.37
2018-10-01T16:51:31.939Z,1.80
2018-10-01T16:54:00.491Z,1.90
2018-10-01T16:56:28.831Z,1.63
2018-10-01T16:58:57.026Z,2.00
2018-10-01T17:01:25.330Z,2.53
2018-10-01T17:03:53.527Z,1.93
2018-10-01T17:06:25.917Z,2.03
2018-10-01T17:08:54.057Z,3.20
2018-10-01T17:11:22.191Z,2.23
2018-10-01T17:13:50.355Z,2.20
2018-10-01T17:16:18.511Z,1.90
2018-10-01T17:18:46.658Z,4.10
2018-10-01T17:21:16.183Z,1.87
2018-10-01T17:23:44.460Z,2.73
2018-10-01T17:26:13.012Z,2.57
2018-10-01T17:28:41.231Z,4.60
2018-10-01T17:31:09.455Z,5.47
2018-10-01T17:33:37.687Z,2.43
2018-10-01T17:36:05.963Z,2.53
2018-10-01T17:38:34.124Z,2.97
2018-10-01T17:41:02.302Z,3.20
2018-10-01T17:43:30.485Z,4.80
2018-10-01T17:45:58.684Z,4.60
2018-10-01T17:48:26.937Z,5.43
2018-10-01T17:50:55.134Z,4.17
2018-10-01T17:53:23.338Z,4.40
2018-10-01T17:55:51.504Z,2.80
2018-10-01T17:58:19.851Z,2.80
2018-10-01T18:00:47.999Z,2.70
2018-10-01T18:03:16.233Z,3.40
2018-10-01T18:05:44.505Z,2.60
2018-10-01T18:08:12.692Z,1.70
2018-10-01T18:10:40.884Z,2.10
2018-10-01T18:13:09.167Z,1.53
2018-10-01T18:15:37.543Z,1.43
2018-10-01T18:18:05.818Z,1.43
2018-10-01T18:20:34.082Z,2.20
2018-10-01T18:23:02.268Z,1.93
2018-10-01T18:25:30.489Z,1.40
2018-10-01T18:27:58.702Z,1.60
2018-10-01T18:30:27.013Z,1.53
2018-10-01T18:32:55.284Z,1.70
2018-10-01T18:35:23.474Z,1.40
2018-10-01T18:37:51.699Z,1.30
2018-10-01T18:40:19.846Z,1.40
2018-10-01T18:42:48.084Z,1.73
2018-10-01T18:45:16.300Z,1.20
2018-10-01T18:47:44.621Z,1.60
2018-10-01T18:50:12.844Z,1.10
2018-10-01T18:52:40.987Z,1.20
2018-10-01T18:55:09.426Z,1.60
2018-10-01T18:57:38.923Z,1.30
2018-10-01T19:00:08.115Z,1.50
2018-10-01T19:02:36.303Z,1.33
2018-10-01T19:05:04.667Z,1.27
2018-10-01T19:07:32.816Z,1.30
2018-10-01T19:10:01.029Z,1.50
2018-10-01T19:12:29.229Z,1.23
2018-10-01T19:14:57.540Z,2.00
2018-10-01T19:17:25.802Z,1.10
2018-10-01T19:19:54.098Z,1.63
2018-10-01T19:22:22.349Z,1.17
2018-10-01T19:24:50.613Z,1.00
2018-10-01T19:27:21.434Z,1.03
2018-10-01T19:29:50.114Z,1.13
2018-10-01T19:32:18.960Z,1.10
2018-10-01T19:34:47.748Z,1.10
2018-10-01T19:37:16.025Z,1.50
2018-10-01T19:39:44.292Z,3.27
2018-10-01T19:42:12.544Z,4.17
2018-10-01T19:44:40.867Z,1.97
2018-10-01T19:47:09.106Z,1.20
2018-10-01T19:49:37.296Z,1.80
2018-10-01T19:52:05.496Z,1.17
2018-10-01T19:54:33.782Z,1.77
2018-10-01T19:57:01.958Z,1.60
2018-10-01T19:59:30.157Z,1.40
2018-10-01T20:01:58.379Z,1.20
2018-10-01T20:04:27.702Z,1.00
2018-10-01T20:06:55.883Z,1.33
2018-10-01T20:09:24.325Z,1.90
2018-10-01T20:11:52.634Z,1.80
2018-10-01T20:14:21.045Z,2.00
2018-10-01T20:16:49.389Z,2.07
2018-10-01T20:19:17.785Z,2.90
2018-10-01T20:21:46.080Z,1.77
2018-10-01T20:24:15.491Z,2.60
2018-10-01T20:26:43.920Z,1.80
2018-10-01T20:29:12.775Z,2.90
2018-10-01T20:31:42.129Z,1.70
2018-10-01T20:34:10.412Z,2.00
2018-10-01T20:36:38.617Z,1.73
2018-10-01T20:39:08.217Z,2.53
2018-10-01T20:41:36.754Z,1.90
2018-10-01T20:44:06.190Z,1.37
2018-10-01T20:46:34.381Z,1.33
2018-10-01T20:49:02.564Z,1.47
2018-10-01T20:51:30.761Z,1.27
2018-10-01T20:53:59.177Z,0.90
2018-10-01T20:56:27.877Z,0.80
2018-10-01T20:58:56.114Z,0.93
2018-10-01T21:01:24.348Z,0.80
2018-10-01T21:03:52.556Z,1.07
2018-10-01T21:06:20.696Z,1.27
2018-10-01T21:08:48.945Z,0.90
2018-10-01T21:11:17.138Z,1.23
2018-10-01T21:13:45.308Z,1.20
2018-10-01T21:16:14.506Z,0.97
2018-10-01T21:18:42.664Z,1.03
2018-10-01T21:21:10.906Z,1.00
2018-10-01T21:23:39.082Z,1.50
2018-10-01T21:26:07.902Z,1.53
2018-10-01T21:28:36.992Z,1.37
2018-10-01T21:31:05.256Z,1.30
2018-10-01T21:33:33.387Z,1.27
2018-10-01T21:36:01.596Z,1.10
2018-10-01T21:38:29.756Z,1.20
2018-10-01T21:40:59.161Z,1.00
2018-10-01T21:43:27.293Z,1.37
2018-10-01T21:45:55.453Z,1.30
2018-10-01T21:48:23.644Z,1.23
2018-10-01T21:50:51.829Z,1.13
2018-10-01T21:53:19.956Z,1.30
2018-10-01T21:55:48.150Z,1.93
2018-10-01T21:58:17.010Z,1.50
2018-10-01T22:00:50.653Z,1.37
2018-10-01T22:03:18.837Z,1.27
2018-10-01T22:05:46.978Z,1.33
2018-10-01T22:08:15.124Z,1.10
2018-10-01T22:10:43.322Z,1.00
2018-10-01T22:13:11.599Z,0.80
2018-10-01T22:15:45.063Z,1.73
2018-10-01T22:18:14.969Z,1.23
2018-10-01T22:20:43.114Z,1.80
2018-10-01T22:23:11.268Z,1.03
2018-10-01T22:25:39.540Z,1.43
2018-10-01T22:28:08.211Z,1.60
2018-10-01T22:30:36.486Z,1.70
2018-10-01T22:33:04.685Z,1.33
2018-10-01T22:35:32.849Z,1.20
2018-10-01T22:38:01.449Z,1.10
2018-10-01T22:40:30.429Z,1.90
2018-10-01T22:42:58.711Z,1.17
2018-10-01T22:45:26.876Z,1.47
2018-10-01T22:47:55.047Z,2.27
2018-10-01T22:50:23.228Z,3.70
2018-10-01T22:52:51.601Z,2.00
2018-10-01T22:55:19.757Z,2.60
2018-10-01T22:57:47.925Z,1.70
2018-10-01T23:00:16.096Z,1.20
2018-10-01T23:02:44.223Z,1.23
2018-10-01T23:05:12.459Z,1.63
2018-10-01T23:07:40.582Z,2.23
2018-10-01T23:10:09.389Z,1.37
2018-10-01T23:12:37.545Z,1.50
2018-10-01T23:15:05.964Z,1.60
2018-10-01T23:17:34.129Z,1.57
2018-10-01T23:20:03.117Z,1.13
2018-10-01T23:22:31.217Z,1.20
2018-10-01T23:24:59.316Z,1.17
2018-10-01T23:27:27.495Z,1.40
2018-10-01T23:29:55.783Z,1.70
2018-10-01T23:32:23.981Z,1.00
2018-10-01T23:34:52.136Z,1.10
2018-10-01T23:37:20.289Z,1.77
2018-10-01T23:39:49.599Z,1.13
2018-10-01T23:42:17.722Z,1.37
2018-10-01T23:44:45.855Z,1.20
2018-10-01T23:47:13.993Z,1.70
2018-10-01T23:49:42.131Z,1.20
2018-10-01T23:52:10.305Z,1.50
2018-10-01T23:54:38.515Z,1.33
2018-10-01T23:57:06.641Z,1.70
2018-10-01T23:59:34.863Z,1.03
